5FD2 weather

Rybovich Heliport
West Palm Beach, Florida, United States

Public forecast

Using degrees Fahrenheit for public forecast. Weather courtesy of forecast.io.

METAR (pilot weather report)

Closest report is Palm Beach International Airport, 4.7 nm (8.7 km) SSW. Retrieved 2019/06/25 08:53 UTC (36 minutes ago):

KPBI 250853Z 18004KT 10SM FEW250 28/24 A3001 RMK AO2 SLP161 T02780239 55007 $

TAF (pilot weather forecast)

Closest forecast is Palm Beach International Airport, 4.7 nm (8.7 km) SSW. Retrieved 2019/06/25 06:22 UTC (3 hours ago):

TAF KPBI 250520Z 2506/2606 VRB03KT P6SM SKC FM251600 10008KT P6SM FEW030 SCT060 FM251900 10010KT P6SM SCT035 BKN060 FM260100 VRB03KT P6SM SCT035 SCT050